Time,TemperatureF,DewpointF,PressureIn,WindDirection,WindDirectionDegrees,WindSpeedMPH,WindSpeedGustMPH,Humidity,HourlyPrecipIn,Conditions,Clouds,dailyrainin,SoftwareType,DateUTC
2013-02-01 00:01:00,23.0,22.0,-100.00,SSE,165,36.0,44.0,96,0.00,,,-99.99,,2013-02-01 07:01:00,
2013-02-01 00:12:00,23.0,22.0,-100.00,SSE,165,35.0,42.0,96,0.00,,,-99.99,,2013-02-01 07:12:00,
2013-02-01 00:22:00,24.0,22.0,-100.00,SSE,165,38.0,47.0,96,0.01,,,-99.99,,2013-02-01 07:22:00,
2013-02-01 00:32:00,23.0,22.0,-100.00,SSE,167,38.0,47.0,96,0.01,,,-99.99,,2013-02-01 07:32:00,
2013-02-01 00:41:00,24.0,22.0,-100.00,SSE,165,37.0,45.0,96,0.01,,,-99.99,,2013-02-01 07:41:00,
2013-02-01 00:51:00,24.0,22.0,-100.00,SSE,167,39.0,47.0,95,0.00,,,-99.99,,2013-02-01 07:51:00,
2013-02-01 01:01:00,24.0,22.0,-100.00,SSE,165,38.0,45.0,93,-99.99,,,-99.99,,2013-02-01 08:01:00,
2013-02-01 01:11:00,24.0,22.0,-100.00,SSE,165,40.0,51.0,95,0.01,,,-99.99,,2013-02-01 08:11:00,
2013-02-01 01:21:00,23.0,22.0,-100.00,SSE,164,41.0,48.0,96,0.01,,,-99.99,,2013-02-01 08:21:00,
2013-02-01 01:31:00,23.0,22.0,-100.00,SSE,162,40.0,49.0,97,0.01,,,-99.99,,2013-02-01 08:31:00,
2013-02-01 01:52:00,24.0,22.0,-100.00,SSE,158,40.0,46.0,95,0.00,,,-99.99,,2013-02-01 08:52:00,
2013-02-01 02:01:00,24.0,22.0,-100.00,SSE,157,37.0,45.0,95,0.00,,,-99.99,,2013-02-01 09:01:00,
2013-02-01 02:11:00,24.0,23.0,-100.00,SSE,155,36.0,44.0,96,0.01,,,-99.99,,2013-02-01 09:11:00,
2013-02-01 02:21:00,24.0,23.0,-100.00,SSE,155,34.0,40.0,96,0.03,,,-99.99,,2013-02-01 09:21:00,
2013-02-01 02:32:00,24.0,23.0,-100.00,SSE,154,34.0,39.0,97,0.04,,,-99.99,,2013-02-01 09:32:00,
2013-02-01 02:41:00,24.0,23.0,-100.00,SSE,157,32.0,38.0,97,0.03,,,-99.99,,2013-02-01 09:41:00,
2013-02-01 02:51:00,24.0,23.0,-100.00,SSE,155,32.0,37.0,96,0.03,,,-99.99,,2013-02-01 09:51:00,
2013-02-01 03:01:00,24.0,23.0,-100.00,SSE,154,30.0,35.0,95,0.01,,,-99.99,,2013-02-01 10:01:00,
2013-02-01 03:11:00,24.0,23.0,-100.00,SSE,152,29.0,33.0,95,0.00,,,-99.99,,2013-02-01 10:11:00,
2013-02-01 03:21:00,24.0,23.0,-100.00,SSE,154,25.0,30.0,95,0.01,,,-99.99,,2013-02-01 10:21:00,
2013-02-01 03:31:00,24.0,23.0,-100.00,SSE,154,24.0,29.0,94,0.01,,,-99.99,,2013-02-01 10:31:00,
2013-02-01 03:42:00,24.0,23.0,-100.00,SSE,155,23.0,29.0,93,0.01,,,-99.99,,2013-02-01 10:42:00,
2013-02-01 03:52:00,24.0,23.0,-100.00,SSE,157,21.0,28.0,94,0.03,,,-99.99,,2013-02-01 10:52:00,
2013-02-01 04:01:00,24.0,23.0,-100.00,SSE,157,24.0,32.0,94,0.03,,,-99.99,,2013-02-01 11:01:00,
2013-02-01 04:11:00,24.0,23.0,-100.00,SSE,155,26.0,32.0,95,0.06,,,-99.99,,2013-02-01 11:11:00,
2013-02-01 04:22:00,24.0,23.0,-100.00,SSE,154,27.0,34.0,96,0.10,,,-99.99,,2013-02-01 11:22:00,
2013-02-01 04:32:00,-999.0,-99.9,-100.00,SSE,155,28.0,34.0,-999,-99.99,,,-99.99,,2013-02-01 11:32:00,
2013-02-01 04:41:00,24.0,23.0,-100.00,SSE,155,29.0,35.0,97,0.01,,,-99.99,,2013-02-01 11:41:00,
2013-02-01 04:53:00,24.0,23.0,-100.00,SSE,155,29.0,35.0,97,0.01,,,-99.99,,2013-02-01 11:53:00,
2013-02-01 05:02:00,24.0,23.0,-100.00,SSE,158,29.0,34.0,97,0.01,,,-99.99,,2013-02-01 12:02:00,
2013-02-01 05:12:00,24.0,23.0,-100.00,SSE,158,27.0,33.0,96,0.01,,,-99.99,,2013-02-01 12:12:00,
2013-02-01 05:22:00,24.0,23.0,-100.00,SSE,155,26.0,30.0,97,0.03,,,-99.99,,2013-02-01 12:22:00,
2013-02-01 05:42:00,24.0,23.0,-100.00,SSE,155,29.0,35.0,96,0.07,,,-99.99,,2013-02-01 12:42:00,
2013-02-01 05:52:00,24.0,23.0,-100.00,SSE,152,29.0,36.0,96,0.07,,,-99.99,,2013-02-01 12:52:00,
2013-02-01 06:02:00,24.0,23.0,-100.00,SSE,152,32.0,38.0,96,0.06,,,-99.99,,2013-02-01 13:02:00,
2013-02-01 06:11:00,24.0,23.0,-100.00,SSE,148,30.0,38.0,96,-99.99,,,-99.99,,2013-02-01 13:11:00,
2013-02-01 06:22:00,24.0,23.0,-100.00,SSE,148,28.0,35.0,95,0.04,,,-99.99,,2013-02-01 13:22:00,
2013-02-01 06:32:00,24.0,23.0,-100.00,SSE,152,27.0,33.0,96,0.04,,,-99.99,,2013-02-01 13:32:00,
2013-02-01 06:42:00,24.0,23.0,-100.00,SSE,154,27.0,33.0,96,0.08,,,-99.99,,2013-02-01 13:42:00,
2013-02-01 06:52:00,24.0,23.0,-100.00,SSE,154,26.0,31.0,97,0.10,,,-99.99,,2013-02-01 13:52:00,
2013-02-01 07:03:00,24.0,23.0,-100.00,SSE,155,28.0,35.0,97,0.10,,,-99.99,,2013-02-01 14:03:00,
2013-02-01 07:11:00,24.0,24.0,-100.00,SSE,155,31.0,39.0,97,0.11,,,-99.99,,2013-02-01 14:11:00,
2013-02-01 07:21:00,24.0,24.0,-100.00,SSE,155,32.0,39.0,97,0.13,,,-99.99,,2013-02-01 14:21:00,
2013-02-01 07:32:00,24.0,24.0,-100.00,SSE,158,31.0,38.0,97,0.10,,,-99.99,,2013-02-01 14:32:00,
2013-02-01 07:42:00,24.0,24.0,-100.00,SSE,160,32.0,38.0,97,0.08,,,-99.99,,2013-02-01 14:42:00,
2013-02-01 07:52:00,24.0,24.0,-100.00,SSE,160,34.0,41.0,97,0.04,,,-99.99,,2013-02-01 14:52:00,
2013-02-01 08:02:00,24.0,24.0,-100.00,SSE,160,35.0,42.0,97,0.01,,,-99.99,,2013-02-01 15:02:00,
2013-02-01 08:12:00,24.0,24.0,-100.00,SSE,160,34.0,40.0,97,0.01,,,-99.99,,2013-02-01 15:12:00,
2013-02-01 08:21:00,24.0,24.0,-100.00,SSE,160,31.0,38.0,97,0.01,,,-99.99,,2013-02-01 15:21:00,
2013-02-01 08:32:00,24.0,24.0,-100.00,SSE,160,32.0,39.0,97,0.01,,,-99.99,,2013-02-01 15:32:00,
2013-02-01 08:42:00,24.0,24.0,-100.00,SSE,162,29.0,34.0,97,0.00,,,-99.99,,2013-02-01 15:42:00,
2013-02-01 08:52:00,25.0,24.0,-100.00,SSE,161,29.0,35.0,96,0.01,,,-99.99,,2013-02-01 15:52:00,
2013-02-01 09:02:00,25.0,24.0,-100.00,SSE,155,29.0,37.0,94,0.00,,,-99.99,,2013-02-01 16:02:00,
2013-02-01 09:11:00,25.0,23.0,-100.00,SSE,152,32.0,40.0,93,0.00,,,-99.99,,2013-02-01 16:11:00,
2013-02-01 09:22:00,26.0,24.0,-100.00,SSE,155,29.0,40.0,93,0.00,,,-99.99,,2013-02-01 16:22:00,
2013-02-01 09:42:00,25.0,24.0,-100.00,SSE,160,31.0,37.0,94,0.00,,,-99.99,,2013-02-01 16:42:00,
2013-02-01 09:52:00,25.0,23.0,-100.00,SSE,161,29.0,40.0,93,0.01,,,-99.99,,2013-02-01 16:52:00,
2013-02-01 10:02:00,25.0,23.0,-100.00,SSE,164,31.0,37.0,92,0.00,,,-99.99,,2013-02-01 17:02:00,
2013-02-01 10:11:00,25.0,23.0,-100.00,SSE,164,31.0,40.0,92,0.00,,,-99.99,,2013-02-01 17:11:00,
2013-02-01 10:22:00,25.0,23.0,-100.00,SSE,164,32.0,40.0,94,0.01,,,-99.99,,2013-02-01 17:22:00,
2013-02-01 10:32:00,25.0,24.0,-100.00,SSE,162,31.0,39.0,95,0.00,,,-99.99,,2013-02-01 17:32:00,
2013-02-01 10:42:00,25.0,23.0,-100.00,SSE,160,34.0,42.0,95,0.00,,,-99.99,,2013-02-01 17:42:00,
2013-02-01 10:52:00,25.0,24.0,-100.00,SSE,160,32.0,39.0,94,0.00,,,-99.99,,2013-02-01 17:52:00,
2013-02-01 11:02:00,25.0,24.0,-100.00,SSE,160,34.0,42.0,94,0.01,,,-99.99,,2013-02-01 18:02:00,
2013-02-01 11:12:00,25.0,23.0,-100.00,SSE,160,33.0,42.0,93,0.03,,,-99.99,,2013-02-01 18:12:00,
2013-02-01 11:22:00,25.0,24.0,-100.00,SSE,161,34.0,42.0,93,0.01,,,-99.99,,2013-02-01 18:22:00,
2013-02-01 11:32:00,26.0,24.0,-100.00,SSE,164,33.0,42.0,93,0.03,,,-99.99,,2013-02-01 18:32:00,
2013-02-01 11:42:00,26.0,24.0,-100.00,SSE,164,34.0,42.0,92,0.00,,,-99.99,,2013-02-01 18:42:00,
2013-02-01 11:52:00,26.0,24.0,-100.00,SSE,164,34.0,43.0,92,0.00,,,-99.99,,2013-02-01 18:52:00,
2013-02-01 12:02:00,26.0,24.0,-100.00,SSE,164,34.0,40.0,92,0.00,,,-99.99,,2013-02-01 19:02:00,
2013-02-01 12:12:00,-999.0,-99.9,-100.00,SSE,162,34.0,40.0,-999,-99.99,,,-99.99,,2013-02-01 19:12:00,
2013-02-01 12:21:00,26.0,24.0,-100.00,SSE,161,33.0,42.0,90,0.00,,,-99.99,,2013-02-01 19:21:00,
2013-02-01 12:32:00,26.0,24.0,-100.00,SSE,162,34.0,44.0,92,0.03,,,-99.99,,2013-02-01 19:32:00,
2013-02-01 12:41:00,26.0,24.0,-100.00,SSE,162,35.0,44.0,93,0.03,,,-99.99,,2013-02-01 19:41:00,
2013-02-01 12:51:00,26.0,24.0,-100.00,SSE,164,34.0,43.0,95,0.01,,,-99.99,,2013-02-01 19:51:00,
2013-02-01 13:02:00,26.0,24.0,-100.00,SSE,164,35.0,41.0,95,0.00,,,-99.99,,2013-02-01 20:02:00,
2013-02-01 13:11:00,26.0,25.0,-100.00,SSE,167,34.0,45.0,94,0.00,,,-99.99,,2013-02-01 20:11:00,
2013-02-01 13:21:00,26.0,25.0,-100.00,SSE,167,35.0,44.0,95,0.00,,,-99.99,,2013-02-01 20:21:00,
2013-02-01 13:31:00,26.0,25.0,-100.00,SSE,164,34.0,42.0,96,0.00,,,-99.99,,2013-02-01 20:31:00,
2013-02-01 13:41:00,26.0,25.0,-100.00,SSE,162,35.0,45.0,96,0.01,,,-99.99,,2013-02-01 20:41:00,
2013-02-01 13:52:00,26.0,25.0,-100.00,SSE,164,35.0,42.0,97,0.18,,,-99.99,,2013-02-01 20:52:00,
2013-02-01 14:02:00,25.0,24.0,-100.00,SSE,162,35.0,41.0,97,0.04,,,-99.99,,2013-02-01 21:02:00,
2013-02-01 14:11:00,25.0,25.0,-100.00,SSE,164,34.0,40.0,98,0.03,,,-99.99,,2013-02-01 21:11:00,
2013-02-01 14:21:00,25.0,25.0,-100.00,SSE,162,31.0,40.0,98,0.00,,,-99.99,,2013-02-01 21:21:00,
2013-02-01 14:32:00,26.0,25.0,-100.00,SSE,162,34.0,41.0,98,0.01,,,-99.99,,2013-02-01 21:32:00,
2013-02-01 14:41:00,26.0,25.0,-100.00,SSE,162,35.0,42.0,98,0.00,,,-99.99,,2013-02-01 21:41:00,
2013-02-01 14:52:00,26.0,25.0,-100.00,SSE,165,34.0,43.0,97,0.00,,,-99.99,,2013-02-01 21:52:00,
2013-02-01 15:02:00,25.0,25.0,-100.00,SSE,164,37.0,45.0,97,0.10,,,-99.99,,2013-02-01 22:02:00,
2013-02-01 15:11:00,25.0,25.0,-100.00,SSE,164,35.0,44.0,98,0.06,,,-99.99,,2013-02-01 22:11:00,
2013-02-01 15:21:00,25.0,25.0,-100.00,SSE,160,34.0,42.0,98,0.06,,,-99.99,,2013-02-01 22:21:00,
2013-02-01 15:32:00,25.0,25.0,-100.00,SSE,161,29.0,37.0,99,0.00,,,-99.99,,2013-02-01 22:32:00,
2013-02-01 15:42:00,25.0,25.0,-100.00,SSE,165,27.0,34.0,98,0.00,,,-99.99,,2013-02-01 22:42:00,
2013-02-01 15:51:00,26.0,24.0,-100.00,South,174,22.0,30.0,95,0.00,,,-99.99,,2013-02-01 22:51:00,
2013-02-01 16:01:00,26.0,22.0,-100.00,South,182,24.0,32.0,86,0.00,,,-99.99,,2013-02-01 23:01:00,
2013-02-01 16:11:00,26.0,22.0,-100.00,South,186,27.0,35.0,84,0.00,,,-99.99,,2013-02-01 23:11:00,
2013-02-01 16:21:00,26.0,22.0,-100.00,South,184,26.0,36.0,83,0.00,,,-99.99,,2013-02-01 23:21:00,
2013-02-01 16:31:00,26.0,21.0,-100.00,South,186,25.0,32.0,81,0.00,,,-99.99,,2013-02-01 23:31:00,
2013-02-01 16:41:00,26.0,20.0,-100.00,South,188,24.0,29.0,78,0.00,,,-99.99,,2013-02-01 23:41:00,
2013-02-01 16:52:00,26.0,20.0,-100.00,South,188,21.0,26.0,77,0.00,,,-99.99,,2013-02-01 23:52:00,
2013-02-01 17:02:00,26.0,20.0,-100.00,South,188,19.0,25.0,75,0.00,,,-99.99,,2013-02-02 00:02:00,
2013-02-01 17:11:00,27.0,19.0,-100.00,South,185,20.0,25.0,72,0.00,,,-99.99,,2013-02-02 00:11:00,
2013-02-01 17:21:00,27.0,19.0,-100.00,South,182,20.0,24.0,70,-99.99,,,-99.99,,2013-02-02 00:21:00,
2013-02-01 17:32:00,28.0,19.0,-100.00,South,181,20.0,26.0,69,0.00,,,-99.99,,2013-02-02 00:32:00,
2013-02-01 17:52:00,26.0,17.0,-100.00,SSE,168,18.0,25.0,70,0.00,,,-99.99,,2013-02-02 00:52:00,
2013-02-01 18:02:00,25.0,19.0,-100.00,SSE,160,17.0,24.0,79,0.00,,,-99.99,,2013-02-02 01:02:00,
2013-02-01 18:11:00,25.0,20.0,-100.00,SSE,157,21.0,25.0,84,0.00,,,-99.99,,2013-02-02 01:11:00,
2013-02-01 18:21:00,24.0,20.0,-100.00,SSE,162,19.0,24.0,84,0.00,,,-99.99,,2013-02-02 01:21:00,
2013-02-01 18:32:00,24.0,21.0,-100.00,SSE,152,22.0,30.0,86,0.00,,,-99.99,,2013-02-02 01:32:00,
2013-02-01 18:41:00,25.0,21.0,-100.00,SSE,151,22.0,30.0,84,0.00,,,-99.99,,2013-02-02 01:41:00,
2013-02-01 18:52:00,25.0,20.0,-100.00,SSE,151,22.0,27.0,81,0.00,,,-99.99,,2013-02-02 01:52:00,
2013-02-01 19:01:00,25.0,20.0,-100.00,SSE,152,21.0,26.0,81,0.00,,,-99.99,,2013-02-02 02:01:00,
2013-02-01 19:11:00,25.0,19.0,-100.00,SSE,155,24.0,31.0,79,0.00,,,-99.99,,2013-02-02 02:11:00,
2013-02-01 19:21:00,25.0,19.0,-100.00,SSE,155,26.0,31.0,79,0.00,,,-99.99,,2013-02-02 02:21:00,
2013-02-01 19:32:00,25.0,19.0,-100.00,SSE,155,24.0,30.0,79,0.00,,,-99.99,,2013-02-02 02:32:00,
2013-02-01 19:41:00,26.0,20.0,-100.00,SSE,158,26.0,30.0,80,0.01,,,-99.99,,2013-02-02 02:41:00,
2013-02-01 19:52:00,25.0,21.0,-100.00,SSE,160,24.0,29.0,83,0.00,,,-99.99,,2013-02-02 02:52:00,
2013-02-01 20:02:00,25.0,21.0,-100.00,SSE,158,26.0,34.0,85,0.00,,,-99.99,,2013-02-02 03:02:00,
2013-02-01 20:11:00,25.0,22.0,-100.00,SSE,158,27.0,32.0,86,0.00,,,-99.99,,2013-02-02 03:11:00,
2013-02-01 20:21:00,25.0,21.0,-100.00,SSE,158,29.0,34.0,86,0.00,,,-99.99,,2013-02-02 03:21:00,
2013-02-01 20:32:00,25.0,22.0,-100.00,SSE,161,30.0,35.0,87,0.00,,,-99.99,,2013-02-02 03:32:00,
2013-02-01 20:42:00,25.0,21.0,-100.00,SSE,161,30.0,37.0,87,0.00,,,-99.99,,2013-02-02 03:42:00,
2013-02-01 20:51:00,25.0,22.0,-100.00,SSE,162,29.0,35.0,87,0.00,,,-99.99,,2013-02-02 03:51:00,
2013-02-01 21:01:00,25.0,21.0,-100.00,SSE,162,28.0,35.0,87,0.00,,,-99.99,,2013-02-02 04:01:00,
2013-02-01 21:11:00,25.0,21.0,-100.00,SSE,164,28.0,34.0,87,0.00,,,-99.99,,2013-02-02 04:11:00,
2013-02-01 21:21:00,25.0,21.0,-100.00,SSE,164,27.0,32.0,85,0.00,,,-99.99,,2013-02-02 04:21:00,
2013-02-01 21:32:00,24.0,20.0,-100.00,SSE,161,26.0,32.0,82,0.00,,,-99.99,,2013-02-02 04:32:00,
2013-02-01 21:42:00,24.0,19.0,-100.00,SSE,160,25.0,30.0,83,0.00,,,-99.99,,2013-02-02 04:42:00,
2013-02-01 21:51:00,23.0,19.0,-100.00,SSE,157,24.0,29.0,83,0.00,,,-99.99,,2013-02-02 04:51:00,
2013-02-01 22:03:00,23.0,19.0,-100.00,SSE,155,27.0,31.0,84,0.00,,,-99.99,,2013-02-02 05:03:00,
2013-02-01 22:12:00,24.0,19.0,-100.00,SSE,155,28.0,32.0,83,0.00,,,-99.99,,2013-02-02 05:12:00,
2013-02-01 22:22:00,24.0,19.0,-100.00,SSE,154,28.0,35.0,84,0.00,,,-99.99,,2013-02-02 05:22:00,
2013-02-01 22:33:00,23.0,19.0,-100.00,SSE,152,28.0,37.0,84,0.00,,,-99.99,,2013-02-02 05:33:00,
2013-02-01 22:41:00,23.0,19.0,-100.00,SSE,154,27.0,35.0,85,0.00,,,-99.99,,2013-02-02 05:41:00,
2013-02-01 22:52:00,23.0,19.0,-100.00,SSE,157,24.0,29.0,85,0.00,,,-99.99,,2013-02-02 05:52:00,
2013-02-01 23:02:00,23.0,19.0,-100.00,SSE,155,26.0,32.0,83,0.00,,,-99.99,,2013-02-02 06:02:00,
2013-02-01 23:12:00,24.0,19.0,-100.00,SSE,155,31.0,42.0,81,0.00,,,-99.99,,2013-02-02 06:12:00,
2013-02-01 23:21:00,23.0,19.0,-100.00,SSE,155,29.0,34.0,82,0.00,,,-99.99,,2013-02-02 06:21:00,
2013-02-01 23:32:00,-999.0,-99.9,-100.00,SSE,155,29.0,35.0,-999,-99.99,,,-99.99,,2013-02-02 06:32:00,
2013-02-01 23:41:00,24.0,18.0,-100.00,SSE,155,30.0,37.0,80,0.00,,,-99.99,,2013-02-02 06:41:00,
2013-02-01 23:51:00,24.0,18.0,-100.00,SSE,160,29.0,37.0,80,0.00,,,-99.99,,2013-02-02 06:51:00,